Airport View

Enter AWOS ICAO identifier for current METAR.

ex. KFNL

KGJT 300353Z AUTO 08004KT 10SM CLR 05/01 A3027 RMK AO2 SLP246 T00500006

30 Oct 2020 04:18

Frequency: 118.550

Phone: 970-245-7881

Other Area AWOS: KAJZ - KRIL - KMTJ - KAIB

TAF KGJT 292326Z 3000/3024 VRB03KT P6SM SKC FM300900 11005KT P6SM SKC FM301900 30005KT P6SM SKC